createdAt,value
2019-03-29T07:50:20.439Z,17.5
2019-03-29T07:50:32.853Z,20
2019-03-29T07:50:45.251Z,19.9
2019-03-29T07:50:57.671Z,19.9
2019-03-29T07:51:10.041Z,19.799999
2019-03-29T07:51:22.443Z,19.799999
2019-03-29T07:51:34.841Z,20
2019-03-29T07:51:47.241Z,20.1
2019-03-29T07:51:59.643Z,20.1
2019-03-29T07:52:12.040Z,19.6
2019-03-29T07:52:24.450Z,19
2019-03-29T07:52:50.817Z,17.799999
2019-03-29T07:53:05.259Z,19.4
2019-03-29T07:53:19.722Z,19.299999
2019-03-29T07:53:34.182Z,19.700001
2019-03-29T07:53:48.636Z,20.299999
2019-03-29T07:54:03.104Z,19.9
2019-03-29T07:54:17.573Z,19
2019-03-29T07:54:32.067Z,19.4
2019-03-29T07:54:46.532Z,19.1
2019-03-29T07:55:00.996Z,19.299999
2019-03-29T07:55:15.446Z,20.5
2019-03-29T07:55:29.913Z,19.700001
2019-03-29T07:55:44.352Z,20
2019-03-29T07:55:58.812Z,19.1
2019-03-29T07:56:13.280Z,17.799999
2019-03-29T07:56:27.983Z,19.1
2019-03-29T07:56:42.460Z,19.799999
2019-03-29T07:56:56.910Z,19.1
2019-03-29T07:57:11.373Z,19.200001
2019-03-29T07:57:25.839Z,19.5
2019-03-29T07:57:40.335Z,19.1
2019-03-29T07:57:54.806Z,19.700001
2019-03-29T07:58:09.275Z,20.299999
2019-03-29T07:58:23.737Z,19.200001
2019-03-29T07:59:40.838Z,19.1
2019-03-29T08:00:42.512Z,20.5
2019-03-29T08:01:41.840Z,20.4
2019-03-29T08:02:41.788Z,19.5
2019-03-29T08:03:41.811Z,18.9
2019-03-29T08:04:41.940Z,19.299999
2019-03-29T08:05:41.766Z,19.700001
2019-03-29T08:06:41.783Z,20.200001
2019-03-29T08:07:41.794Z,19.9
2019-03-29T08:08:41.742Z,19.9
2019-03-29T08:09:41.779Z,19.9
2019-03-29T08:10:41.750Z,19
2019-03-29T08:11:46.359Z,19.5
2019-03-29T08:12:41.644Z,19
2019-03-29T08:13:41.668Z,20.200001
2019-03-29T08:14:41.660Z,20.5
2019-03-29T08:15:41.766Z,20.6
2019-03-29T08:16:41.734Z,20.4
2019-03-29T08:17:41.637Z,20.799999
2019-03-29T08:18:41.617Z,21.1
2019-03-29T08:19:41.614Z,22.1
2019-03-29T08:20:44.254Z,21.299999
2019-03-29T08:21:42.273Z,23.1
2019-03-29T08:22:41.669Z,20.5
2019-03-29T08:23:41.621Z,19
2019-03-29T08:24:41.717Z,20
2019-03-29T08:25:41.607Z,20.6
2019-03-29T08:26:41.659Z,20.9
2019-03-29T08:27:41.627Z,21.6
2019-03-29T08:28:41.606Z,20
2019-03-29T08:29:41.596Z,20.200001
2019-03-29T08:30:41.634Z,20.799999
2019-03-29T08:31:41.750Z,21.5
2019-03-29T08:32:41.572Z,20.799999
2019-03-29T08:33:41.573Z,22.6
2019-03-29T08:34:41.530Z,20.5
2019-03-29T08:35:41.569Z,20.700001
2019-03-29T08:36:41.537Z,20.799999
2019-03-29T08:37:41.507Z,20.1
2019-03-29T08:38:41.487Z,20.299999
2019-03-29T08:39:41.453Z,20.5
2019-03-29T08:41:42.493Z,19.299999
2019-03-29T08:42:43.473Z,18.799999
2019-03-29T08:43:43.489Z,18.799999
2019-03-29T08:44:43.511Z,17.5
2019-03-29T08:45:43.531Z,17.9
2019-03-29T08:46:43.572Z,17.4
2019-03-29T09:22:38.997Z,5.1
2019-03-29T09:23:39.671Z,5.8
2019-03-29T09:24:39.707Z,5
2019-03-29T09:25:40.537Z,3.9
2019-03-29T09:26:39.487Z,4.7
2019-03-29T09:27:39.400Z,3.9
2019-03-29T09:28:39.281Z,5.2
2019-03-29T09:29:39.222Z,3.5
2019-03-29T09:30:39.110Z,4.7
2019-03-29T09:31:38.995Z,3.5
2019-03-29T09:32:38.908Z,2.7
2019-03-29T09:33:38.787Z,3.8
2019-03-29T09:34:38.669Z,3.8
2019-03-29T09:35:38.547Z,4.3
2019-03-29T09:36:38.455Z,4.4
2019-03-29T09:37:38.334Z,5.3
2019-03-29T09:38:38.211Z,5.4
2019-03-29T09:39:38.120Z,3.2
2019-03-29T09:40:37.994Z,4
2019-03-29T09:41:37.889Z,3.5
2019-03-29T09:42:37.833Z,4.7
2019-03-29T09:56:43.275Z,1.3
2019-03-29T09:57:44.335Z,1.4
2019-03-29T09:58:45.132Z,1.2
2019-03-29T09:59:44.402Z,1.3
2019-03-29T10:00:44.356Z,1.4
2019-03-29T10:01:44.307Z,1.6
2019-03-29T10:02:44.194Z,1.3
2019-03-29T10:03:44.248Z,1.5
2019-03-29T10:04:44.232Z,1.3
2019-03-29T10:05:44.101Z,1.4
2019-03-29T10:06:44.212Z,1.5
2019-03-29T10:07:44.005Z,1.5
2019-03-29T10:08:44.031Z,1.2
2019-03-29T10:09:44.593Z,1.4
2019-03-29T10:10:43.795Z,1.5
2019-03-29T10:11:43.807Z,1.4
2019-03-29T10:12:44.188Z,1.7
2019-03-29T10:13:43.725Z,1.6
2019-03-29T10:14:43.647Z,1.7
2019-03-29T10:15:43.579Z,1.4
2019-03-29T10:16:43.609Z,1.7
2019-03-29T10:17:43.414Z,1.4
2019-03-29T10:18:43.427Z,1.2
2019-03-29T10:19:43.319Z,1.5
2019-03-29T10:20:43.420Z,1.9
2019-03-29T10:21:43.185Z,1.4
2019-03-29T10:22:43.022Z,1.4
2019-03-29T10:23:42.971Z,1.3
2019-03-29T10:24:42.950Z,1.4
2019-03-29T10:25:42.741Z,2.1
